Airfield :
LOGIN :

Register | Disclaimer

   EN    FR    IT 

 










Legend :    VFR   Marginal VFR   IFR   Intensive IFR   Very Intensive IFR
Visi :
Ceiling :
>= 8 km
>= 3000ft
5 to 8 km
1000 to 3000 ft
1500m to 5 km
500 to 1000 ft
800 to 1500m
200 to 500 ft
< 800m
< 200 ft
Symbols :   Thunderstorms  Fog  Heavy snow  Heavy precipitations  Wind > 20 kt
SIGMETs :     Misc.  Thunderstorms  Icing  Turbulence  Mountain Waves  Volcanic Ashes







- Airport Elevation : 44 ft
- IATA code : POR


EFPO - Pori

CURRENT METAR :
  • 130220Z AUTO 01004KT CAVOK M02/M04 Q1034

EXPIRED METARs :
  • 130150Z AUTO 01003KT CAVOK M02/M03 Q1034
  • 130120Z AUTO 03003KT 9999 FEW019/// M02/M03 Q1034
  • 130050Z AUTO 05003KT 9999 OVC019/// M01/M03 Q1034
  • 130020Z AUTO 06003KT 020V080 9999 BKN019/// M01/M04 Q1034
  • 122350Z AUTO 06004KT 020V080 9999 -SN FEW011/// BKN016/// BKN021/// M01/M03 Q1034

Expired Forecast.
No reported NOTAMs for that airfield.



MET'MAP, your aeronautical weather chart ! - Copyright ORBIFLY December 2007 - Disclaimer

ORBIFLY MET'MAP TEAM :

Programming & Development : Alexandra Zaïnal
Concept & Development : Baudouin d'Aumeries
Co-Development & Prog : Marc-Olivier Méhu
Technical & hardware support : Manuel Goepfert

Contact : metmap@orbifly.com




SOURCES & CREDITS :

   NOAA